Terminal Aerodrome Forecast
Issued by NWS Bismarck, ND

Home | Current Version | Previous Version | Graphics & Text | Print | Product List | Glossary On
Versions: 1 2 3 4 5 6 7 8 9 10 11 12 13 14 15 16 17 18 19 20 21 22 23 24
000
FTUS43 KBIS 241100
TAFBIS
TAF
KBIS 241134Z 2412/2512 20005KT 5SM BR OVC007
      TEMPO 2412/2415 1SM BR OVC002
     FM241600 19010KT P6SM BKN070 OVC100
     FM241900 23012KT P6SM BKN040 OVC080
     FM250400 31008KT P6SM BKN020 OVC040
     FM251000 35012KT P6SM OVC012=

USA.gov is the U.S. government's official web portal to all federal, state and local government web resources and services.